Assen, Netherlands
Current Conditions -  °F | °C
As of 8:25 PM on Friday 28 Nov 2014 (Local Time) from EHGG Reporting Station
Clear Clear  
Wind Chill: 29°   Ceiling: Unl
Heat Index: 37°   Visibility: 4mi
Dew Point: 32°   Wind: 13mph
Humidity: 81%   Direction: 100°E
Pressure: 29.94"   Gusts: NA
Location:  53°N, 6.56°E
Report Text: EHGG 281925Z AUTO 10011KT 060V130 7000 NSC 03/M00 Q1014 NOSIG
Loading
Personal Weather Stations






























Interactive Weather Map New forecast layout! Learn more

10-Day Weather Forecast

Advertisements
Track Severe Weather on mobile